Time;durP1;ratioP1;P1;durP2;ratioP2;P2;SDS_P1;SDS_P2;PMS_P1;PMS_P2;Temp;Humidity;BMP_temperature;BMP_pressure;BME280_temperature;BME280_humidity;BME280_pressure;Samples;Min_cycle;Max_cycle;Signal;HPM_P1;HPM_P2
2024/03/09 00:00:16;;;;;;;8.03;4.37;;;;;;;;;;10348625;28;20909;-84
2024/03/09 00:05:20;;;;;;;6.82;4.18;;;;;;;;;;10350383;28;20473;-85
2024/03/09 00:10:24;;;;;;;7.63;4.50;;;;;;;;;;10353156;28;20415;-85
2024/03/09 00:15:28;;;;;;;6.53;3.93;;;;;;;;;;10348801;28;20962;-85
2024/03/09 00:20:34;;;;;;;7.22;4.43;;;;;;;;;;10351862;28;21399;-85
2024/03/09 00:25:40;;;;;;;6.45;4.15;;;;;;;;;;10343115;28;20893;-85
2024/03/09 00:30:42;;;;;;;7.40;4.82;;;;;;;;;;10346344;28;20411;-84
2024/03/09 00:35:44;;;;;;;7.30;5.07;;;;;;;;;;10336173;28;20526;-84
2024/03/09 00:40:48;;;;;;;7.83;4.40;;;;;;;;;;10353706;28;20419;-84
2024/03/09 00:45:50;;;;;;;8.13;4.38;;;;;;;;;;10357111;28;20411;-85
2024/03/09 00:50:53;;;;;;;8.55;4.90;;;;;;;;;;10359157;28;20485;-85
2024/03/09 00:55:57;;;;;;;8.07;4.95;;;;;;;;;;10346774;28;20843;-85
2024/03/09 01:01:03;;;;;;;8.30;4.50;;;;;;;;;;10363922;28;20458;-85
2024/03/09 01:06:06;;;;;;;7.45;4.20;;;;;;;;;;10359453;28;20504;-85
2024/03/09 01:11:10;;;;;;;7.28;4.57;;;;;;;;;;10367929;28;20449;-85
2024/03/09 01:16:13;;;;;;;8.15;4.68;;;;;;;;;;10359044;28;20454;-85
2024/03/09 01:21:16;;;;;;;5.65;4.03;;;;;;;;;;10365590;28;20516;-85
2024/03/09 01:26:20;;;;;;;6.32;3.65;;;;;;;;;;10363556;28;20415;-84
2024/03/09 01:31:27;;;;;;;7.33;4.00;;;;;;;;;;10359951;28;20449;-85
2024/03/09 01:36:30;;;;;;;6.50;3.97;;;;;;;;;;10350987;28;20443;-85
2024/03/09 01:41:34;;;;;;;4.85;3.22;;;;;;;;;;10350499;28;20475;-85
2024/03/09 01:46:36;;;;;;;6.43;4.05;;;;;;;;;;10348538;28;20476;-85
2024/03/09 01:51:40;;;;;;;6.20;3.80;;;;;;;;;;10346357;28;20418;-85
2024/03/09 01:56:44;;;;;;;5.65;3.33;;;;;;;;;;10348312;28;20459;-85
2024/03/09 02:01:46;;;;;;;6.20;4.00;;;;;;;;;;10344153;28;20411;-84
2024/03/09 02:06:51;;;;;;;6.53;3.88;;;;;;;;;;10343361;28;20843;-84
2024/03/09 02:12:00;;;;;;;6.63;4.03;;;;;;;;;;10344092;28;20853;-85
2024/03/09 02:17:07;;;;;;;9.23;4.43;;;;;;;;;;10346424;28;20437;-85
2024/03/09 02:22:12;;;;;;;7.90;4.25;;;;;;;;;;10344027;28;20407;-85
2024/03/09 02:27:18;;;;;;;8.15;4.68;;;;;;;;;;10346610;28;20407;-85
2024/03/09 02:32:21;;;;;;;6.75;3.95;;;;;;;;;;10349551;28;20885;-85
2024/03/09 02:37:24;;;;;;;6.93;4.00;;;;;;;;;;10345428;28;20903;-85
2024/03/09 02:42:27;;;;;;;8.13;4.80;;;;;;;;;;10350979;28;20751;-85
2024/03/09 02:47:31;;;;;;;7.32;4.50;;;;;;;;;;10352742;28;20411;-85
2024/03/09 02:52:33;;;;;;;7.60;4.40;;;;;;;;;;10353665;28;21480;-84
2024/03/09 02:57:37;;;;;;;7.82;4.40;;;;;;;;;;10345853;28;20458;-84
2024/03/09 03:07:59;;;;;;;8.63;4.87;;;;;;;;;;10338233;28;20483;-84
2024/03/09 03:13:04;;;;;;;10.10;5.03;;;;;;;;;;10346599;28;20514;-85
2024/03/09 03:18:09;;;;;;;9.63;4.93;;;;;;;;;;10344197;28;20473;-85
2024/03/09 03:23:12;;;;;;;7.22;4.80;;;;;;;;;;10351035;28;20465;-85
2024/03/09 03:28:16;;;;;;;8.23;4.70;;;;;;;;;;10349743;28;20403;-84
2024/03/09 03:33:21;;;;;;;8.88;4.75;;;;;;;;;;10342399;28;20527;-85
2024/03/09 03:38:23;;;;;;;8.00;4.70;;;;;;;;;;10349020;28;20415;-85
2024/03/09 03:43:28;;;;;;;7.28;4.57;;;;;;;;;;10348298;28;20416;-84
2024/03/09 03:48:30;;;;;;;10.23;4.70;;;;;;;;;;10348506;28;20423;-85
2024/03/09 03:53:33;;;;;;;8.77;4.90;;;;;;;;;;10276289;28;1948895;-84
2024/03/09 03:58:37;;;;;;;8.83;5.80;;;;;;;;;;10349413;28;20469;-84
2024/03/09 04:03:39;;;;;;;8.97;5.20;;;;;;;;;;10351254;28;20860;-85
2024/03/09 04:08:41;;;;;;;8.80;4.97;;;;;;;;;;10351280;28;20554;-84
2024/03/09 04:13:45;;;;;;;8.65;4.93;;;;;;;;;;10351740;28;20454;-85
2024/03/09 04:18:48;;;;;;;8.40;5.23;;;;;;;;;;10356421;28;20411;-85
2024/03/09 04:23:50;;;;;;;8.13;4.93;;;;;;;;;;10360511;28;20441;-85
2024/03/09 04:28:54;;;;;;;8.48;4.65;;;;;;;;;;10358205;28;20828;-84
2024/03/09 04:33:56;;;;;;;6.68;4.30;;;;;;;;;;10354334;28;20921;-84
2024/03/09 04:39:00;;;;;;;7.90;4.50;;;;;;;;;;10356938;28;20415;-85
2024/03/09 04:44:04;;;;;;;8.80;4.93;;;;;;;;;;10357317;28;20411;-85
2024/03/09 04:49:07;;;;;;;8.30;5.18;;;;;;;;;;10353784;28;20405;-85
2024/03/09 04:54:13;;;;;;;8.63;5.10;;;;;;;;;;10354154;28;20538;-84
2024/03/09 04:59:17;;;;;;;8.70;5.00;;;;;;;;;;10349815;28;20995;-84
2024/03/09 05:04:19;;;;;;;9.23;4.90;;;;;;;;;;10356927;28;20416;-85
2024/03/09 05:09:25;;;;;;;9.68;5.53;;;;;;;;;;10350675;28;21029;-85
2024/03/09 05:14:30;;;;;;;8.93;5.10;;;;;;;;;;10357212;28;20908;-85
2024/03/09 05:19:32;;;;;;;8.20;5.20;;;;;;;;;;10355283;28;20878;-84
2024/03/09 05:24:35;;;;;;;8.35;5.05;;;;;;;;;;10360330;28;21382;-85
2024/03/09 05:29:39;;;;;;;10.13;5.40;;;;;;;;;;10354325;28;20405;-85
2024/03/09 05:34:41;;;;;;;7.07;4.53;;;;;;;;;;10357086;28;20478;-85
2024/03/09 05:39:43;;;;;;;8.55;4.95;;;;;;;;;;10355019;28;20440;-85
2024/03/09 05:44:47;;;;;;;10.23;5.43;;;;;;;;;;10353760;28;20444;-85
2024/03/09 05:49:49;;;;;;;9.10;4.90;;;;;;;;;;10357628;28;20432;-85
2024/03/09 05:54:52;;;;;;;8.07;4.60;;;;;;;;;;10350468;28;20510;-86
2024/03/09 05:59:55;;;;;;;7.05;4.43;;;;;;;;;;10349998;28;20509;-84
2024/03/09 06:04:58;;;;;;;7.78;4.35;;;;;;;;;;10347859;28;20413;-85
2024/03/09 06:10:01;;;;;;;7.90;4.43;;;;;;;;;;10350498;28;20424;-85
2024/03/09 06:15:05;;;;;;;7.10;4.28;;;;;;;;;;10351739;28;20500;-85
2024/03/09 06:20:09;;;;;;;7.65;4.60;;;;;;;;;;10350239;28;20409;-85
2024/03/09 06:25:19;;;;;;;8.50;4.35;;;;;;;;;;10356213;28;20457;-85
2024/03/09 06:30:25;;;;;;;7.38;4.38;;;;;;;;;;10357329;28;20465;-85
2024/03/09 06:35:27;;;;;;;9.87;4.83;;;;;;;;;;10357299;28;20489;-85
2024/03/09 06:40:31;;;;;;;7.47;4.57;;;;;;;;;;10356092;28;20547;-85
2024/03/09 06:45:36;;;;;;;8.75;4.95;;;;;;;;;;10349188;28;20448;-85
2024/03/09 06:50:43;;;;;;;7.70;4.30;;;;;;;;;;10347347;28;20486;-85
2024/03/09 06:55:46;;;;;;;8.05;4.57;;;;;;;;;;10339673;28;20530;-85
2024/03/09 07:00:52;;;;;;;7.20;3.80;;;;;;;;;;10342478;28;20875;-85
2024/03/09 07:05:54;;;;;;;7.28;4.07;;;;;;;;;;10344974;28;20829;-84
2024/03/09 07:10:57;;;;;;;7.68;4.38;;;;;;;;;;10344603;28;20481;-85
2024/03/09 07:16:01;;;;;;;7.53;4.43;;;;;;;;;;10349664;28;20510;-86
2024/03/09 07:21:05;;;;;;;6.45;4.18;;;;;;;;;;10348620;28;20407;-85
2024/03/09 07:26:11;;;;;;;6.90;4.43;;;;;;;;;;10351303;28;20822;-84
2024/03/09 07:31:16;;;;;;;6.15;4.22;;;;;;;;;;10348870;28;20417;-85
2024/03/09 07:36:20;;;;;;;6.68;4.05;;;;;;;;;;10346199;28;20958;-85
2024/03/09 07:41:23;;;;;;;6.28;3.88;;;;;;;;;;10349687;28;20442;-85
2024/03/09 07:46:29;;;;;;;7.82;4.05;;;;;;;;;;10350723;28;20454;-85
2024/03/09 07:51:31;;;;;;;6.35;3.88;;;;;;;;;;10356455;23;20478;-81
2024/03/09 07:56:34;;;;;;;6.30;3.78;;;;;;;;;;10348524;28;20459;-80
2024/03/09 08:01:38;;;;;;;7.10;4.00;;;;;;;;;;10348628;28;20485;-80
2024/03/09 08:06:43;;;;;;;5.53;3.63;;;;;;;;;;10353202;28;20465;-82
2024/03/09 08:11:46;;;;;;;5.38;3.80;;;;;;;;;;10350328;28;20412;-81
2024/03/09 08:16:49;;;;;;;6.85;4.05;;;;;;;;;;10350262;28;20910;-81
2024/03/09 08:21:52;;;;;;;5.47;3.70;;;;;;;;;;10345537;28;20846;-82
2024/03/09 08:26:54;;;;;;;4.60;3.10;;;;;;;;;;10341765;28;20407;-81
2024/03/09 08:32:00;;;;;;;4.78;3.22;;;;;;;;;;10344206;28;20833;-82
2024/03/09 08:37:08;;;;;;;5.60;3.05;;;;;;;;;;10336877;28;20938;-81
2024/03/09 08:42:11;;;;;;;4.47;3.10;;;;;;;;;;10338998;28;20518;-81
2024/03/09 08:47:16;;;;;;;3.95;3.00;;;;;;;;;;10341105;28;20537;-80
2024/03/09 08:52:20;;;;;;;4.28;2.53;;;;;;;;;;10346856;28;20528;-82
2024/03/09 08:57:23;;;;;;;4.30;2.60;;;;;;;;;;10349355;28;20450;-82
2024/03/09 09:02:27;;;;;;;4.93;2.50;;;;;;;;;;10343138;28;20897;-82
2024/03/09 09:07:30;;;;;;;3.28;2.17;;;;;;;;;;10347791;28;20417;-82
2024/03/09 09:12:35;;;;;;;2.28;1.80;;;;;;;;;;10354518;28;20446;-80
2024/03/09 09:17:40;;;;;;;3.42;2.13;;;;;;;;;;10365575;28;21011;-82
2024/03/09 09:22:43;;;;;;;2.60;1.80;;;;;;;;;;10354783;28;20478;-82
2024/03/09 09:27:45;;;;;;;2.40;1.63;;;;;;;;;;10354703;28;20516;-81
2024/03/09 09:32:50;;;;;;;3.70;1.40;;;;;;;;;;10349245;28;20421;-81
2024/03/09 09:37:53;;;;;;;2.58;1.77;;;;;;;;;;10356829;28;20427;-81
2024/03/09 09:42:59;;;;;;;1.90;1.30;;;;;;;;;;10342773;28;20507;-81
2024/03/09 09:48:04;;;;;;;2.88;1.40;;;;;;;;;;10351743;28;20411;-81
2024/03/09 09:53:08;;;;;;;1.60;1.20;;;;;;;;;;10342750;28;20455;-82
2024/03/09 09:58:12;;;;;;;1.77;1.40;;;;;;;;;;10349340;28;20529;-82
2024/03/09 10:03:17;;;;;;;2.17;1.17;;;;;;;;;;10344839;28;20949;-82
2024/03/09 10:08:20;;;;;;;1.50;1.30;;;;;;;;;;10333183;28;20527;-82
2024/03/09 10:13:24;;;;;;;1.88;1.50;;;;;;;;;;10335221;28;20475;-83
2024/03/09 10:18:28;;;;;;;1.60;1.20;;;;;;;;;;10343179;28;20460;-83
2024/03/09 10:23:31;;;;;;;2.95;1.10;;;;;;;;;;10350275;28;20470;-82
2024/03/09 10:28:36;;;;;;;1.37;1.03;;;;;;;;;;10354730;28;20889;-82
2024/03/09 10:33:40;;;;;;;1.60;1.05;;;;;;;;;;10341892;28;20407;-82
2024/03/09 10:38:43;;;;;;;3.97;0.95;;;;;;;;;;10352767;28;20516;-81
2024/03/09 10:43:46;;;;;;;1.45;1.25;;;;;;;;;;10348235;28;20411;-81
2024/03/09 10:48:52;;;;;;;1.88;1.30;;;;;;;;;;10349484;28;20415;-80
2024/03/09 10:54:06;;;;;;;1.38;1.20;;;;;;;;;;10342594;28;20927;-78
2024/03/09 10:59:10;;;;;;;1.80;1.23;;;;;;;;;;10344712;28;20468;-80
2024/03/09 11:04:15;;;;;;;1.75;1.25;;;;;;;;;;10338034;28;20604;-80
2024/03/09 11:09:29;;;;;;;1.60;1.20;;;;;;;;;;10338240;28;20450;-81
2024/03/09 11:14:33;;;;;;;2.15;1.33;;;;;;;;;;10336762;28;20450;-80
2024/03/09 11:19:43;;;;;;;1.90;1.10;;;;;;;;;;10345479;28;20516;-80
2024/03/09 11:24:45;;;;;;;1.47;1.10;;;;;;;;;;10337246;28;20451;-80
2024/03/09 11:29:48;;;;;;;1.48;1.10;;;;;;;;;;10343104;28;21008;-81
2024/03/09 11:34:53;;;;;;;1.60;1.13;;;;;;;;;;10339258;28;20490;-82
2024/03/09 11:39:55;;;;;;;0.90;0.80;;;;;;;;;;10335777;28;20882;-81
2024/03/09 11:44:57;;;;;;;1.85;1.25;;;;;;;;;;10342639;28;20501;-82
2024/03/09 11:50:02;;;;;;;0.60;0.60;;;;;;;;;;10349657;28;20481;-82
2024/03/09 11:55:08;;;;;;;1.23;0.70;;;;;;;;;;10351658;28;20456;-81
2024/03/09 12:00:14;;;;;;;1.50;0.88;;;;;;;;;;10331859;28;20916;-81
2024/03/09 12:05:18;;;;;;;0.90;0.80;;;;;;;;;;10339641;28;20452;-82
2024/03/09 12:10:20;;;;;;;1.30;1.05;;;;;;;;;;10335868;28;21537;-83
2024/03/09 12:15:23;;;;;;;0.93;0.80;;;;;;;;;;10333882;28;20501;-82
2024/03/09 12:20:28;;;;;;;0.88;0.80;;;;;;;;;;10341059;28;20916;-80
2024/03/09 12:25:32;;;;;;;0.95;0.90;;;;;;;;;;10340529;28;20460;-81
2024/03/09 12:30:35;;;;;;;2.50;0.90;;;;;;;;;;10330243;28;20468;-81
2024/03/09 12:35:41;;;;;;;2.60;0.93;;;;;;;;;;10329262;28;20464;-84
2024/03/09 12:40:45;;;;;;;1.00;0.70;;;;;;;;;;10342447;28;21879;-80
2024/03/09 12:45:52;;;;;;;0.68;0.68;;;;;;;;;;10357064;28;20995;-82
2024/03/09 12:50:56;;;;;;;1.50;0.75;;;;;;;;;;10364182;28;20458;-82
2024/03/09 12:55:59;;;;;;;0.77;0.68;;;;;;;;;;10361413;28;20456;-82
2024/03/09 13:01:04;;;;;;;1.00;0.80;;;;;;;;;;10353270;28;20482;-82
2024/03/09 13:06:07;;;;;;;3.97;1.95;;;;;;;;;;10333301;28;20455;-83
2024/03/09 13:11:11;;;;;;;0.88;0.70;;;;;;;;;;10339550;28;20600;-81
2024/03/09 13:16:13;;;;;;;1.10;0.88;;;;;;;;;;10344682;28;21001;-81
2024/03/09 13:21:17;;;;;;;1.38;0.85;;;;;;;;;;10334385;28;20490;-82
2024/03/09 13:26:19;;;;;;;0.63;0.63;;;;;;;;;;10336945;28;20483;-80
2024/03/09 13:31:23;;;;;;;0.70;0.70;;;;;;;;;;10335622;28;20433;-81
2024/03/09 13:36:27;;;;;;;4.70;2.10;;;;;;;;;;10331771;28;20464;-82
2024/03/09 13:41:29;;;;;;;1.25;1.15;;;;;;;;;;10329704;28;20452;-83
2024/03/09 13:46:31;;;;;;;0.80;0.80;;;;;;;;;;10331449;28;20447;-83
2024/03/09 13:51:35;;;;;;;0.87;0.77;;;;;;;;;;10342221;28;20444;-83
2024/03/09 13:56:37;;;;;;;0.80;0.80;;;;;;;;;;10340455;28;20956;-83
2024/03/09 14:01:42;;;;;;;1.00;0.80;;;;;;;;;;10343645;28;20442;-85
2024/03/09 14:06:45;;;;;;;0.70;0.63;;;;;;;;;;10334273;28;20463;-80
2024/03/09 14:11:48;;;;;;;1.08;0.68;;;;;;;;;;10318828;28;20485;-81
2024/03/09 14:16:52;;;;;;;0.88;0.70;;;;;;;;;;10341858;28;20452;-81
2024/03/09 14:21:56;;;;;;;1.77;0.90;;;;;;;;;;10343183;28;20459;-81
2024/03/09 14:26:59;;;;;;;1.90;0.80;;;;;;;;;;10339043;28;20455;-80
2024/03/09 14:32:01;;;;;;;1.52;1.42;;;;;;;;;;10347416;28;20966;-81
2024/03/09 14:37:09;;;;;;;1.10;1.00;;;;;;;;;;10336331;28;20467;-81
2024/03/09 14:42:12;;;;;;;1.90;1.63;;;;;;;;;;10336872;28;20517;-82
2024/03/09 14:47:15;;;;;;;1.25;1.15;;;;;;;;;;10339317;28;20456;-82
2024/03/09 14:52:19;;;;;;;1.55;1.42;;;;;;;;;;10328114;28;20448;-81
2024/03/09 14:57:21;;;;;;;1.30;1.20;;;;;;;;;;10349669;28;20429;-81
2024/03/09 15:02:24;;;;;;;1.23;0.80;;;;;;;;;;10344477;28;20450;-80
2024/03/09 15:07:28;;;;;;;0.82;0.73;;;;;;;;;;10339525;28;20477;-82
2024/03/09 15:12:31;;;;;;;2.07;1.50;;;;;;;;;;10358137;28;20433;-82
2024/03/09 15:17:33;;;;;;;1.10;1.00;;;;;;;;;;10367838;28;20457;-82
2024/03/09 15:22:37;;;;;;;1.30;1.15;;;;;;;;;;10370027;28;20445;-81
2024/03/09 15:27:39;;;;;;;0.95;0.80;;;;;;;;;;10365431;28;20528;-83
2024/03/09 15:32:41;;;;;;;1.58;1.30;;;;;;;;;;10358024;28;20448;-83
2024/03/09 15:37:45;;;;;;;1.50;1.00;;;;;;;;;;10363875;28;20515;-84
2024/03/09 15:42:50;;;;;;;1.83;1.30;;;;;;;;;;10360333;28;20510;-84
2024/03/09 15:47:53;;;;;;;1.60;1.50;;;;;;;;;;10362590;28;20471;-84
2024/03/09 15:52:57;;;;;;;1.20;0.90;;;;;;;;;;10368412;28;20451;-83
2024/03/09 15:57:59;;;;;;;1.90;1.40;;;;;;;;;;10375295;28;21359;-83
2024/03/09 16:03:03;;;;;;;1.65;1.35;;;;;;;;;;10350312;28;20501;-82
2024/03/09 16:08:07;;;;;;;3.33;2.13;;;;;;;;;;10339627;28;20441;-82
2024/03/09 16:13:12;;;;;;;1.90;1.48;;;;;;;;;;10344312;28;20452;-80
2024/03/09 16:18:15;;;;;;;2.10;1.60;;;;;;;;;;10346701;28;20460;-82
2024/03/09 16:23:19;;;;;;;2.00;1.53;;;;;;;;;;10350136;28;20458;-81
2024/03/09 16:28:26;;;;;;;1.98;1.40;;;;;;;;;;10350102;28;20450;-82
2024/03/09 16:33:29;;;;;;;1.70;1.60;;;;;;;;;;10348553;28;20454;-82
2024/03/09 16:38:33;;;;;;;1.40;1.27;;;;;;;;;;10341586;28;20466;-82
2024/03/09 16:43:35;;;;;;;2.43;1.70;;;;;;;;;;10344361;28;20452;-82
2024/03/09 16:48:37;;;;;;;2.27;1.87;;;;;;;;;;10353733;28;20456;-82
2024/03/09 16:53:41;;;;;;;1.83;1.60;;;;;;;;;;10351327;28;20450;-82
2024/03/09 16:58:43;;;;;;;2.35;1.70;;;;;;;;;;10350118;28;20471;-83
2024/03/09 17:03:49;;;;;;;2.30;1.80;;;;;;;;;;10357059;28;20620;-81
2024/03/09 17:08:55;;;;;;;3.00;1.80;;;;;;;;;;10354617;28;20452;-82
2024/03/09 17:13:58;;;;;;;2.65;1.98;;;;;;;;;;10353384;28;21014;-82
2024/03/09 17:19:00;;;;;;;1.92;1.55;;;;;;;;;;10347087;28;20466;-82
2024/03/09 17:24:05;;;;;;;1.90;1.40;;;;;;;;;;10348164;28;20458;-82
2024/03/09 17:29:08;;;;;;;3.08;2.10;;;;;;;;;;10341691;28;20451;-82
2024/03/09 17:34:14;;;;;;;2.72;2.15;;;;;;;;;;10345388;28;20446;-83
2024/03/09 17:39:22;;;;;;;2.53;2.10;;;;;;;;;;10351600;28;20459;-83
2024/03/09 17:44:25;;;;;;;2.97;2.40;;;;;;;;;;10351139;28;20443;-82
2024/03/09 17:49:28;;;;;;;4.70;3.30;;;;;;;;;;10357277;28;20493;-85
2024/03/09 17:54:33;;;;;;;5.80;3.67;;;;;;;;;;10359485;28;20441;-84
2024/03/09 17:59:35;;;;;;;6.63;3.90;;;;;;;;;;10357360;28;20846;-85
2024/03/09 18:04:38;;;;;;;4.80;3.50;;;;;;;;;;10352516;28;20742;-83
2024/03/09 18:09:41;;;;;;;3.50;2.95;;;;;;;;;;10351062;28;20482;-84
2024/03/09 18:14:44;;;;;;;4.37;2.90;;;;;;;;;;10339872;28;20456;-84
2024/03/09 18:19:46;;;;;;;4.78;3.40;;;;;;;;;;10356772;28;20471;-83
2024/03/09 18:24:51;;;;;;;8.30;4.95;;;;;;;;;;10352633;28;20471;-84
2024/03/09 18:29:55;;;;;;;13.25;7.93;;;;;;;;;;10349109;28;20893;-84
2024/03/09 18:34:57;;;;;;;7.53;5.93;;;;;;;;;;10359514;28;20452;-82
2024/03/09 18:40:02;;;;;;;8.15;6.07;;;;;;;;;;10346080;28;20517;-83
2024/03/09 18:45:05;;;;;;;5.15;4.05;;;;;;;;;;10347296;28;20442;-82
2024/03/09 18:50:09;;;;;;;7.53;5.60;;;;;;;;;;10359855;28;20447;-83
2024/03/09 18:55:13;;;;;;;7.53;5.43;;;;;;;;;;10356299;28;20467;-83
2024/03/09 19:00:17;;;;;;;7.78;5.65;;;;;;;;;;10347488;28;20455;-84
2024/03/09 19:05:22;;;;;;;8.93;6.13;;;;;;;;;;10350292;28;20522;-84
2024/03/09 19:10:26;;;;;;;11.30;6.50;;;;;;;;;;10352499;28;20472;-83
2024/03/09 19:15:29;;;;;;;8.02;6.50;;;;;;;;;;10351888;28;20529;-84
2024/03/09 19:20:34;;;;;;;15.65;8.25;;;;;;;;;;10346305;28;21015;-82
2024/03/09 19:25:38;;;;;;;5.30;3.88;;;;;;;;;;10352332;28;20460;-81
2024/03/09 19:30:40;;;;;;;5.05;3.88;;;;;;;;;;10340000;28;20510;-84
2024/03/09 19:35:44;;;;;;;6.55;3.90;;;;;;;;;;10352924;28;20494;-82
2024/03/09 19:40:48;;;;;;;3.80;3.08;;;;;;;;;;10350709;28;20450;-84
2024/03/09 19:45:51;;;;;;;4.63;3.17;;;;;;;;;;10349728;28;20444;-83
2024/03/09 19:50:53;;;;;;;5.50;3.87;;;;;;;;;;10351630;28;21141;-84
2024/03/09 19:55:59;;;;;;;9.48;5.40;;;;;;;;;;10345878;28;20474;-85
2024/03/09 20:01:03;;;;;;;8.10;5.25;;;;;;;;;;10336779;28;20497;-85
2024/03/09 20:06:06;;;;;;;7.30;4.85;;;;;;;;;;10343553;28;20443;-84
2024/03/09 20:11:10;;;;;;;11.27;6.85;;;;;;;;;;10338858;28;20442;-83
2024/03/09 20:16:12;;;;;;;10.15;6.30;;;;;;;;;;10330183;28;20542;-85
2024/03/09 20:21:15;;;;;;;9.57;6.30;;;;;;;;;;10352141;28;20467;-85
2024/03/09 20:26:19;;;;;;;14.35;8.05;;;;;;;;;;10339965;28;20731;-85
2024/03/09 20:31:21;;;;;;;10.25;6.95;;;;;;;;;;10347226;28;20449;-85
2024/03/09 20:36:24;;;;;;;8.93;5.65;;;;;;;;;;10350044;28;20518;-84
2024/03/09 20:41:28;;;;;;;11.13;8.07;;;;;;;;;;10349884;28;20814;-86
2024/03/09 20:46:31;;;;;;;11.75;8.45;;;;;;;;;;10361898;28;20445;-86
2024/03/09 20:51:38;;;;;;;10.07;7.40;;;;;;;;;;10348354;28;20412;-85
2024/03/09 20:56:42;;;;;;;9.20;6.63;;;;;;;;;;10348078;28;20509;-84
2024/03/09 21:01:44;;;;;;;9.40;6.60;;;;;;;;;;10349897;28;20958;-85
2024/03/09 21:06:47;;;;;;;7.05;6.10;;;;;;;;;;10358162;28;20508;-86
2024/03/09 21:11:51;;;;;;;10.27;7.10;;;;;;;;;;10354802;28;20582;-86
2024/03/09 21:16:56;;;;;;;10.93;7.80;;;;;;;;;;10357062;28;20443;-85
2024/03/09 21:21:58;;;;;;;12.47;8.40;;;;;;;;;;10359500;28;20463;-84
2024/03/09 21:27:02;;;;;;;10.10;7.03;;;;;;;;;;10358123;28;21002;-85
2024/03/09 21:32:07;;;;;;;11.23;7.93;;;;;;;;;;10360358;28;20469;-86
2024/03/09 21:37:10;;;;;;;14.00;7.63;;;;;;;;;;10360643;28;20833;-86
2024/03/09 21:42:17;;;;;;;9.40;6.97;;;;;;;;;;10368763;28;20483;-86
2024/03/09 21:47:20;;;;;;;9.70;6.50;;;;;;;;;;10357337;28;20961;-84
2024/03/09 21:52:22;;;;;;;10.07;6.77;;;;;;;;;;10357152;28;20443;-84
2024/03/09 21:57:26;;;;;;;8.30;6.20;;;;;;;;;;10353631;28;20422;-87
2024/03/09 22:02:28;;;;;;;10.60;6.80;;;;;;;;;;10356072;28;20419;-85
2024/03/09 22:07:30;;;;;;;9.27;6.68;;;;;;;;;;10356414;28;20982;-86
2024/03/09 22:12:35;;;;;;;9.30;6.47;;;;;;;;;;10355120;28;20405;-85
2024/03/09 22:17:38;;;;;;;9.00;6.67;;;;;;;;;;10354083;28;20847;-86
2024/03/09 22:22:41;;;;;;;7.95;6.00;;;;;;;;;;10346736;28;20489;-86
2024/03/09 22:27:47;;;;;;;8.18;6.15;;;;;;;;;;10346547;28;21198;-86
2024/03/09 22:32:50;;;;;;;7.83;5.77;;;;;;;;;;10352881;28;20421;-85
2024/03/09 22:37:54;;;;;;;7.75;5.60;;;;;;;;;;10351041;28;20485;-85
2024/03/09 22:42:58;;;;;;;8.73;5.80;;;;;;;;;;10359156;28;20479;-85
2024/03/09 22:48:00;;;;;;;9.43;6.22;;;;;;;;;;10344648;28;20585;-86
2024/03/09 22:53:03;;;;;;;8.85;6.20;;;;;;;;;;10359950;28;20498;-85
2024/03/09 22:58:08;;;;;;;9.48;6.63;;;;;;;;;;10358462;28;20423;-86
2024/03/09 23:03:11;;;;;;;11.10;7.50;;;;;;;;;;10357914;28;20473;-86
2024/03/09 23:08:16;;;;;;;11.48;7.05;;;;;;;;;;10363915;28;20421;-84
2024/03/09 23:13:20;;;;;;;9.15;5.65;;;;;;;;;;10357207;28;20665;-86
2024/03/09 23:18:24;;;;;;;8.80;6.00;;;;;;;;;;10347792;28;20505;-86
2024/03/09 23:23:26;;;;;;;7.73;5.67;;;;;;;;;;10351213;28;20513;-85
2024/03/09 23:28:30;;;;;;;9.07;6.37;;;;;;;;;;10341675;28;20507;-85
2024/03/09 23:33:33;;;;;;;9.45;6.45;;;;;;;;;;10347644;28;20459;-85
2024/03/09 23:38:39;;;;;;;10.68;7.07;;;;;;;;;;10363749;28;20430;-84
2024/03/09 23:43:42;;;;;;;9.18;5.85;;;;;;;;;;10335297;28;20434;-86
2024/03/09 23:48:45;;;;;;;9.57;5.80;;;;;;;;;;10352291;28;21270;-85
2024/03/09 23:53:47;;;;;;;7.97;5.10;;;;;;;;;;10341383;28;20436;-85
2024/03/09 23:58:51;;;;;;;7.70;5.10;;;;;;;;;;10337412;28;20499;-84
